sensor_id;sensor_type;location;lat;lon;timestamp;pressure;altitude;pressure_sealevel;temperature;humidity
10014;BME280;45684;48.358;10.746;2023-03-23T00:00:52;95752.72;;;8.37;100.00
10014;BME280;45684;48.358;10.746;2023-03-23T00:03:19;95748.41;;;8.36;100.00
10014;BME280;45684;48.358;10.746;2023-03-23T00:05:48;95743.53;;;8.38;100.00
10014;BME280;45684;48.358;10.746;2023-03-23T00:08:25;95740.22;;;8.41;100.00
10014;BME280;45684;48.358;10.746;2023-03-23T00:10:54;95737.84;;;8.48;100.00
10014;BME280;45684;48.358;10.746;2023-03-23T00:13:23;95739.13;;;8.51;100.00
10014;BME280;45684;48.358;10.746;2023-03-23T00:15:50;95741.66;;;8.47;100.00
10014;BME280;45684;48.358;10.746;2023-03-23T00:18:17;95746.25;;;8.47;100.00
10014;BME280;45684;48.358;10.746;2023-03-23T00:20:53;95745.78;;;8.45;100.00
10014;BME280;45684;48.358;10.746;2023-03-23T00:23:21;95753.56;;;8.55;100.00
10014;BME280;45684;48.358;10.746;2023-03-23T00:25:51;95741.16;;;8.36;100.00
10014;BME280;45684;48.358;10.746;2023-03-23T00:28:20;95739.00;;;8.25;100.00
10014;BME280;45684;48.358;10.746;2023-03-23T00:30:54;95745.50;;;8.24;100.00
10014;BME280;45684;48.358;10.746;2023-03-23T00:33:24;95743.56;;;8.15;100.00
10014;BME280;45684;48.358;10.746;2023-03-23T00:35:55;95734.06;;;8.09;100.00
10014;BME280;45684;48.358;10.746;2023-03-23T00:38:23;95744.03;;;8.09;100.00
10014;BME280;45684;48.358;10.746;2023-03-23T00:40:53;95742.28;;;8.04;100.00
10014;BME280;45684;48.358;10.746;2023-03-23T00:43:21;95733.72;;;8.02;100.00
10014;BME280;45684;48.358;10.746;2023-03-23T00:45:50;95730.53;;;8.00;100.00
10014;BME280;45684;48.358;10.746;2023-03-23T00:48:18;95731.97;;;8.06;100.00
10014;BME280;45684;48.358;10.746;2023-03-23T00:50:45;95721.69;;;8.08;100.00
10014;BME280;45684;48.358;10.746;2023-03-23T00:53:14;95724.53;;;8.03;100.00
10014;BME280;45684;48.358;10.746;2023-03-23T00:55:45;95731.03;;;8.02;100.00
10014;BME280;45684;48.358;10.746;2023-03-23T00:58:13;95728.81;;;8.04;100.00
10014;BME280;45684;48.358;10.746;2023-03-23T01:00:42;95728.00;;;8.04;100.00
10014;BME280;45684;48.358;10.746;2023-03-23T01:03:09;95725.31;;;8.04;100.00
10014;BME280;45684;48.358;10.746;2023-03-23T01:05:39;95719.28;;;7.98;100.00
10014;BME280;45684;48.358;10.746;2023-03-23T01:08:07;95715.75;;;7.89;100.00
10014;BME280;45684;48.358;10.746;2023-03-23T01:10:35;95717.47;;;7.85;100.00
10014;BME280;45684;48.358;10.746;2023-03-23T01:13:05;95714.97;;;7.88;100.00
10014;BME280;45684;48.358;10.746;2023-03-23T01:15:33;95709.75;;;7.92;100.00
10014;BME280;45684;48.358;10.746;2023-03-23T01:18:01;95701.66;;;7.92;100.00
10014;BME280;45684;48.358;10.746;2023-03-23T01:20:28;95707.53;;;7.94;100.00
10014;BME280;45684;48.358;10.746;2023-03-23T01:22:56;95698.81;;;7.97;100.00
10014;BME280;45684;48.358;10.746;2023-03-23T01:25:26;95687.63;;;8.04;100.00
10014;BME280;45684;48.358;10.746;2023-03-23T01:27:55;95689.25;;;8.13;100.00
10014;BME280;45684;48.358;10.746;2023-03-23T01:30:22;95684.31;;;8.15;100.00
10014;BME280;45684;48.358;10.746;2023-03-23T01:32:50;95672.13;;;8.09;100.00
10014;BME280;45684;48.358;10.746;2023-03-23T01:35:17;95665.16;;;8.08;100.00
10014;BME280;45684;48.358;10.746;2023-03-23T01:37:45;95674.81;;;8.09;100.00
10014;BME280;45684;48.358;10.746;2023-03-23T01:40:13;95672.63;;;8.11;100.00
10014;BME280;45684;48.358;10.746;2023-03-23T01:42:43;95673.56;;;8.15;100.00
10014;BME280;45684;48.358;10.746;2023-03-23T01:45:24;95675.63;;;8.18;100.00
10014;BME280;45684;48.358;10.746;2023-03-23T01:47:56;95677.22;;;8.19;100.00
10014;BME280;45684;48.358;10.746;2023-03-23T01:50:24;95678.78;;;8.21;100.00
10014;BME280;45684;48.358;10.746;2023-03-23T01:52:54;95675.47;;;8.15;100.00
10014;BME280;45684;48.358;10.746;2023-03-23T01:55:25;95670.53;;;8.08;100.00
10014;BME280;45684;48.358;10.746;2023-03-23T01:57:56;95666.91;;;8.13;100.00
10014;BME280;45684;48.358;10.746;2023-03-23T02:00:27;95670.22;;;8.10;100.00
10014;BME280;45684;48.358;10.746;2023-03-23T02:02:55;95659.28;;;8.06;100.00
10014;BME280;45684;48.358;10.746;2023-03-23T02:05:30;95657.53;;;8.10;100.00
10014;BME280;45684;48.358;10.746;2023-03-23T02:08:06;95652.66;;;8.12;100.00
10014;BME280;45684;48.358;10.746;2023-03-23T02:10:36;95646.31;;;8.17;100.00
10014;BME280;45684;48.358;10.746;2023-03-23T02:13:05;95643.78;;;8.21;100.00
10014;BME280;45684;48.358;10.746;2023-03-23T02:15:42;95640.16;;;8.25;100.00
10014;BME280;45684;48.358;10.746;2023-03-23T02:18:25;95650.44;;;8.23;100.00
10014;BME280;45684;48.358;10.746;2023-03-23T02:21:30;95655.19;;;8.17;100.00
10014;BME280;45684;48.358;10.746;2023-03-23T02:24:28;95656.31;;;8.25;100.00
10014;BME280;45684;48.358;10.746;2023-03-23T02:27:00;95657.28;;;8.29;100.00
10014;BME280;45684;48.358;10.746;2023-03-23T02:29:50;95663.31;;;8.35;100.00
10014;BME280;45684;48.358;10.746;2023-03-23T02:32:36;95665.13;;;8.39;100.00
10014;BME280;45684;48.358;10.746;2023-03-23T02:35:10;95657.66;;;8.45;100.00
10014;BME280;45684;48.358;10.746;2023-03-23T02:37:43;95654.81;;;8.50;100.00
10014;BME280;45684;48.358;10.746;2023-03-23T02:40:16;95665.59;;;8.50;100.00
10014;BME280;45684;48.358;10.746;2023-03-23T02:42:48;95657.84;;;8.49;100.00
10014;BME280;45684;48.358;10.746;2023-03-23T02:45:20;95648.16;;;8.48;100.00
10014;BME280;45684;48.358;10.746;2023-03-23T02:47:53;95660.66;;;8.52;100.00
10014;BME280;45684;48.358;10.746;2023-03-23T02:50:24;95662.59;;;8.60;100.00
10014;BME280;45684;48.358;10.746;2023-03-23T02:52:54;95660.53;;;8.66;100.00
10014;BME280;45684;48.358;10.746;2023-03-23T02:55:23;95655.31;;;8.69;100.00
10014;BME280;45684;48.358;10.746;2023-03-23T02:57:52;95658.63;;;8.66;100.00
10014;BME280;45684;48.358;10.746;2023-03-23T03:00:19;95654.34;;;8.65;100.00
10014;BME280;45684;48.358;10.746;2023-03-23T03:02:48;95651.66;;;8.65;100.00
10014;BME280;45684;48.358;10.746;2023-03-23T03:05:29;95653.56;;;8.65;100.00
10014;BME280;45684;48.358;10.746;2023-03-23T03:08:08;95661.47;;;8.70;100.00
10014;BME280;45684;48.358;10.746;2023-03-23T03:10:45;95662.13;;;8.76;100.00
10014;BME280;45684;48.358;10.746;2023-03-23T03:13:21;95665.47;;;8.81;100.00
10014;BME280;45684;48.358;10.746;2023-03-23T03:15:54;95658.00;;;8.87;100.00
10014;BME280;45684;48.358;10.746;2023-03-23T03:18:26;95657.22;;;8.86;100.00
10014;BME280;45684;48.358;10.746;2023-03-23T03:20:58;95652.28;;;8.88;100.00
10014;BME280;45684;48.358;10.746;2023-03-23T03:23:28;95664.50;;;8.86;100.00
10014;BME280;45684;48.358;10.746;2023-03-23T03:26:02;95656.41;;;8.86;100.00
10014;BME280;45684;48.358;10.746;2023-03-23T03:28:47;95655.94;;;8.84;100.00
10014;BME280;45684;48.358;10.746;2023-03-23T03:31:20;95661.97;;;8.81;100.00
10014;BME280;45684;48.358;10.746;2023-03-23T03:33:48;95657.53;;;8.85;100.00
10014;BME280;45684;48.358;10.746;2023-03-23T03:36:20;95668.63;;;8.83;100.00
10014;BME280;45684;48.358;10.746;2023-03-23T03:38:50;95666.88;;;8.87;100.00
10014;BME280;45684;48.358;10.746;2023-03-23T03:41:19;95679.44;;;9.01;100.00
10014;BME280;45684;48.358;10.746;2023-03-23T03:43:47;95674.81;;;9.10;100.00
10014;BME280;45684;48.358;10.746;2023-03-23T03:46:15;95678.31;;;9.19;100.00
10014;BME280;45684;48.358;10.746;2023-03-23T03:48:41;95688.75;;;9.38;100.00
10014;BME280;45684;48.358;10.746;2023-03-23T03:51:08;95679.03;;;9.45;100.00
10014;BME280;45684;48.358;10.746;2023-03-23T03:53:40;95673.63;;;9.54;100.00
10014;BME280;45684;48.358;10.746;2023-03-23T03:56:07;95690.59;;;9.55;100.00
10014;BME280;45684;48.358;10.746;2023-03-23T03:58:41;95690.44;;;9.60;100.00
10014;BME280;45684;48.358;10.746;2023-03-23T04:01:17;95693.28;;;9.63;100.00
10014;BME280;45684;48.358;10.746;2023-03-23T04:03:44;95685.03;;;9.68;100.00
10014;BME280;45684;48.358;10.746;2023-03-23T04:06:18;95685.19;;;9.63;100.00
10014;BME280;45684;48.358;10.746;2023-03-23T04:08:47;95679.78;;;9.72;100.00
10014;BME280;45684;48.358;10.746;2023-03-23T04:11:14;95677.41;;;9.70;100.00
10014;BME280;45684;48.358;10.746;2023-03-23T04:13:42;95681.19;;;9.69;100.00
10014;BME280;45684;48.358;10.746;2023-03-23T04:16:19;95690.72;;;9.76;100.00
10014;BME280;45684;48.358;10.746;2023-03-23T04:18:47;95677.06;;;9.72;100.00
10014;BME280;45684;48.358;10.746;2023-03-23T04:21:16;95669.75;;;9.73;100.00
10014;BME280;45684;48.358;10.746;2023-03-23T04:23:49;95679.63;;;9.68;100.00
10014;BME280;45684;48.358;10.746;2023-03-23T04:26:16;95672.00;;;9.70;100.00
10014;BME280;45684;48.358;10.746;2023-03-23T04:28:48;95667.69;;;9.69;100.00
10014;BME280;45684;48.358;10.746;2023-03-23T04:31:34;95661.06;;;9.67;100.00
10014;BME280;45684;48.358;10.746;2023-03-23T04:34:21;95664.53;;;9.67;100.00
10014;BME280;45684;48.358;10.746;2023-03-23T04:36:53;95661.38;;;9.65;100.00
10014;BME280;45684;48.358;10.746;2023-03-23T04:39:27;95651.03;;;9.76;100.00
10014;BME280;45684;48.358;10.746;2023-03-23T04:41:57;95650.53;;;9.74;100.00
10014;BME280;45684;48.358;10.746;2023-03-23T04:44:46;95638.50;;;9.71;100.00
10014;BME280;45684;48.358;10.746;2023-03-23T04:47:21;95636.75;;;9.67;100.00
10014;BME280;45684;48.358;10.746;2023-03-23T04:49:54;95637.72;;;9.62;100.00
10014;BME280;45684;48.358;10.746;2023-03-23T04:52:27;95642.94;;;9.67;100.00
10014;BME280;45684;48.358;10.746;2023-03-23T04:54:58;95635.78;;;9.71;100.00
10014;BME280;45684;48.358;10.746;2023-03-23T04:57:26;95629.44;;;9.67;100.00
10014;BME280;45684;48.358;10.746;2023-03-23T05:00:15;95633.28;;;9.66;100.00
10014;BME280;45684;48.358;10.746;2023-03-23T05:02:48;95624.22;;;9.62;100.00
10014;BME280;45684;48.358;10.746;2023-03-23T05:05:19;95625.78;;;9.72;100.00
10014;BME280;45684;48.358;10.746;2023-03-23T05:07:48;95620.22;;;9.68;100.00
10014;BME280;45684;48.358;10.746;2023-03-23T05:10:21;95613.75;;;9.61;100.00
10014;BME280;45684;48.358;10.746;2023-03-23T05:13:03;95612.81;;;9.57;100.00
10014;BME280;45684;48.358;10.746;2023-03-23T05:15:30;95604.72;;;9.57;100.00
10014;BME280;45684;48.358;10.746;2023-03-23T05:18:00;95605.50;;;9.57;100.00
10014;BME280;45684;48.358;10.746;2023-03-23T05:20:29;95602.31;;;9.55;100.00
10014;BME280;45684;48.358;10.746;2023-03-23T05:23:02;95603.00;;;9.52;100.00
10014;BME280;45684;48.358;10.746;2023-03-23T05:25:35;95602.03;;;9.57;100.00
10014;BME280;45684;48.358;10.746;2023-03-23T05:28:10;95584.06;;;9.61;100.00
10014;BME280;45684;48.358;10.746;2023-03-23T05:31:06;95597.84;;;9.68;100.00
10014;BME280;45684;48.358;10.746;2023-03-23T05:33:33;95588.91;;;9.76;100.00
10014;BME280;45684;48.358;10.746;2023-03-23T05:36:06;95594.59;;;9.83;100.00
10014;BME280;45684;48.358;10.746;2023-03-23T05:38:56;95593.94;;;9.86;100.00
10014;BME280;45684;48.358;10.746;2023-03-23T05:41:32;95595.28;;;10.01;100.00
10014;BME280;45684;48.358;10.746;2023-03-23T05:44:01;95592.28;;;10.03;100.00
10014;BME280;45684;48.358;10.746;2023-03-23T05:46:43;95589.81;;;10.18;100.00
10014;BME280;45684;48.358;10.746;2023-03-23T05:49:11;95589.78;;;10.27;100.00
10014;BME280;45684;48.358;10.746;2023-03-23T05:51:40;95593.75;;;10.51;100.00
10014;BME280;45684;48.358;10.746;2023-03-23T05:54:06;95594.91;;;10.62;100.00
10014;BME280;45684;48.358;10.746;2023-03-23T05:56:36;95594.84;;;10.70;100.00
10014;BME280;45684;48.358;10.746;2023-03-23T05:59:13;95596.63;;;10.87;100.00
10014;BME280;45684;48.358;10.746;2023-03-23T06:01:43;95607.47;;;10.99;100.00
10014;BME280;45684;48.358;10.746;2023-03-23T06:04:10;95604.38;;;11.10;100.00
10014;BME280;45684;48.358;10.746;2023-03-23T06:06:50;95606.34;;;11.21;100.00
10014;BME280;45684;48.358;10.746;2023-03-23T06:09:19;95611.53;;;11.27;100.00
10014;BME280;45684;48.358;10.746;2023-03-23T06:12:07;95611.66;;;11.30;100.00
10014;BME280;45684;48.358;10.746;2023-03-23T06:14:48;95604.91;;;11.36;100.00
10014;BME280;45684;48.358;10.746;2023-03-23T06:17:21;95607.38;;;11.41;100.00
10014;BME280;45684;48.358;10.746;2023-03-23T06:19:51;95611.22;;;11.40;100.00
10014;BME280;45684;48.358;10.746;2023-03-23T06:22:19;95618.78;;;11.47;100.00
10014;BME280;45684;48.358;10.746;2023-03-23T06:25:03;95611.59;;;11.51;100.00
10014;BME280;45684;48.358;10.746;2023-03-23T06:27:38;95615.41;;;11.50;100.00
10014;BME280;45684;48.358;10.746;2023-03-23T06:30:09;95615.41;;;11.50;100.00
10014;BME280;45684;48.358;10.746;2023-03-23T06:32:37;95612.38;;;11.52;100.00
10014;BME280;45684;48.358;10.746;2023-03-23T06:35:09;95622.19;;;11.56;100.00
10014;BME280;45684;48.358;10.746;2023-03-23T06:37:55;95615.34;;;11.59;100.00
10014;BME280;45684;48.358;10.746;2023-03-23T06:40:42;95620.66;;;11.67;100.00
10014;BME280;45684;48.358;10.746;2023-03-23T06:43:17;95626.06;;;11.80;100.00
10014;BME280;45684;48.358;10.746;2023-03-23T06:46:04;95621.38;;;11.89;100.00
10014;BME280;45684;48.358;10.746;2023-03-23T06:48:40;95616.63;;;11.98;100.00
10014;BME280;45684;48.358;10.746;2023-03-23T06:51:10;95617.91;;;12.13;100.00
10014;BME280;45684;48.358;10.746;2023-03-23T06:53:39;95620.16;;;12.23;100.00
10014;BME280;45684;48.358;10.746;2023-03-23T06:56:10;95614.38;;;12.37;100.00
10014;BME280;45684;48.358;10.746;2023-03-23T06:58:43;95621.25;;;12.46;100.00
10014;BME280;45684;48.358;10.746;2023-03-23T07:01:11;95618.06;;;12.57;100.00
10014;BME280;45684;48.358;10.746;2023-03-23T07:03:47;95609.13;;;12.68;100.00
10014;BME280;45684;48.358;10.746;2023-03-23T07:06:18;95619.03;;;12.76;100.00
10014;BME280;45684;48.358;10.746;2023-03-23T07:08:52;95616.00;;;12.78;100.00
10014;BME280;45684;48.358;10.746;2023-03-23T16:45:59;95670.66;;;16.07;77.71
10014;BME280;45684;48.358;10.746;2023-03-23T16:48:27;95671.38;;;16.04;77.42
10014;BME280;45684;48.358;10.746;2023-03-23T16:50:56;95671.75;;;16.02;77.27
10014;BME280;45684;48.358;10.746;2023-03-23T16:53:26;95671.88;;;15.87;78.68
10014;BME280;45684;48.358;10.746;2023-03-23T16:55:58;95671.00;;;15.82;80.70
10014;BME280;45684;48.358;10.746;2023-03-23T16:58:29;95672.38;;;15.73;82.23
10014;BME280;45684;48.358;10.746;2023-03-23T17:00:57;95670.75;;;15.68;83.47
10014;BME280;45684;48.358;10.746;2023-03-23T17:03:29;95662.97;;;15.70;84.54
10014;BME280;45684;48.358;10.746;2023-03-23T17:05:59;95669.53;;;15.66;84.08
10014;BME280;45684;48.358;10.746;2023-03-23T17:08:27;95663.53;;;15.60;84.76
10014;BME280;45684;48.358;10.746;2023-03-23T17:10:55;95657.25;;;15.56;84.85
10014;BME280;45684;48.358;10.746;2023-03-23T17:13:23;95667.28;;;15.52;85.72
10014;BME280;45684;48.358;10.746;2023-03-23T17:15:54;95675.97;;;15.38;87.25
10014;BME280;45684;48.358;10.746;2023-03-23T17:18:23;95669.72;;;15.38;87.93
10014;BME280;45684;48.358;10.746;2023-03-23T17:20:53;95674.25;;;15.30;88.81
10014;BME280;45684;48.358;10.746;2023-03-23T17:23:22;95673.75;;;15.24;91.07
10014;BME280;45684;48.358;10.746;2023-03-23T17:25:50;95668.53;;;15.16;92.02
10014;BME280;45684;48.358;10.746;2023-03-23T17:28:19;95672.25;;;15.08;92.89
10014;BME280;45684;48.358;10.746;2023-03-23T17:30:47;95668.66;;;15.03;94.11
10014;BME280;45684;48.358;10.746;2023-03-23T17:33:15;95663.91;;;15.00;95.92
10014;BME280;45684;48.358;10.746;2023-03-23T17:35:44;95659.13;;;14.94;97.05
10014;BME280;45684;48.358;10.746;2023-03-23T17:38:14;95665.13;;;14.84;98.01
10014;BME280;45684;48.358;10.746;2023-03-23T17:40:43;95676.00;;;14.84;98.76
10014;BME280;45684;48.358;10.746;2023-03-23T17:43:11;95669.59;;;14.76;99.46
10014;BME280;45684;48.358;10.746;2023-03-23T17:45:40;95669.09;;;14.70;100.00
10014;BME280;45684;48.358;10.746;2023-03-23T17:48:12;95672.59;;;14.71;100.00
10014;BME280;45684;48.358;10.746;2023-03-23T17:50:40;95675.09;;;14.60;100.00
10014;BME280;45684;48.358;10.746;2023-03-23T17:53:07;95672.56;;;14.51;100.00
10014;BME280;45684;48.358;10.746;2023-03-23T17:55:37;95671.78;;;14.51;100.00
10014;BME280;45684;48.358;10.746;2023-03-23T17:58:07;95680.09;;;14.42;100.00
10014;BME280;45684;48.358;10.746;2023-03-23T18:00:35;95683.16;;;14.57;100.00
10014;BME280;45684;48.358;10.746;2023-03-23T18:03:03;95688.69;;;14.60;100.00
10014;BME280;45684;48.358;10.746;2023-03-23T18:05:31;95699.69;;;14.48;100.00
10014;BME280;45684;48.358;10.746;2023-03-23T18:07:58;95694.28;;;14.36;100.00
10014;BME280;45684;48.358;10.746;2023-03-23T18:10:26;95698.16;;;14.35;100.00
10014;BME280;45684;48.358;10.746;2023-03-23T18:12:55;95685.88;;;14.25;100.00
10014;BME280;45684;48.358;10.746;2023-03-23T18:15:23;95696.25;;;14.19;100.00
10014;BME280;45684;48.358;10.746;2023-03-23T18:18:08;95697.66;;;14.13;100.00
10014;BME280;45684;48.358;10.746;2023-03-23T18:20:36;95698.25;;;14.07;100.00
10014;BME280;45684;48.358;10.746;2023-03-23T18:23:04;95698.25;;;14.07;100.00
10014;BME280;45684;48.358;10.746;2023-03-23T18:25:32;95690.88;;;14.07;100.00
10014;BME280;45684;48.358;10.746;2023-03-23T18:28:01;95694.38;;;14.08;100.00
10014;BME280;45684;48.358;10.746;2023-03-23T18:30:32;95697.19;;;14.11;100.00
10014;BME280;45684;48.358;10.746;2023-03-23T18:33:00;95693.06;;;14.17;100.00
10014;BME280;45684;48.358;10.746;2023-03-23T18:35:29;95691.41;;;14.13;100.00
10014;BME280;45684;48.358;10.746;2023-03-23T18:37:56;95696.78;;;14.09;100.00
10014;BME280;45684;48.358;10.746;2023-03-23T18:40:25;95699.75;;;14.04;100.00
10014;BME280;45684;48.358;10.746;2023-03-23T18:42:52;95696.56;;;14.02;100.00
10014;BME280;45684;48.358;10.746;2023-03-23T18:45:21;95692.28;;;14.01;100.00
10014;BME280;45684;48.358;10.746;2023-03-23T18:47:49;95693.06;;;14.01;100.00
10014;BME280;45684;48.358;10.746;2023-03-23T18:50:20;95696.84;;;13.97;100.00
10014;BME280;45684;48.358;10.746;2023-03-23T18:52:47;95699.56;;;13.97;100.00
10014;BME280;45684;48.358;10.746;2023-03-23T18:55:15;95701.06;;;13.94;100.00
10014;BME280;45684;48.358;10.746;2023-03-23T18:57:46;95700.59;;;13.92;100.00
10014;BME280;45684;48.358;10.746;2023-03-23T19:00:15;95694.75;;;13.90;100.00
10014;BME280;45684;48.358;10.746;2023-03-23T19:02:45;95706.81;;;13.93;100.00
10014;BME280;45684;48.358;10.746;2023-03-23T19:05:18;95702.53;;;13.92;100.00
10014;BME280;45684;48.358;10.746;2023-03-23T19:07:46;95696.41;;;13.95;100.00
10014;BME280;45684;48.358;10.746;2023-03-23T19:10:13;95704.56;;;13.95;100.00
10014;BME280;45684;48.358;10.746;2023-03-23T19:12:43;95703.78;;;13.94;100.00
10014;BME280;45684;48.358;10.746;2023-03-23T19:15:14;95706.13;;;13.96;100.00
10014;BME280;45684;48.358;10.746;2023-03-23T19:17:42;95703.41;;;13.96;100.00
10014;BME280;45684;48.358;10.746;2023-03-23T19:20:12;95698.66;;;13.93;100.00
10014;BME280;45684;48.358;10.746;2023-03-23T19:23:00;95696.03;;;13.96;100.00
10014;BME280;45684;48.358;10.746;2023-03-23T19:25:28;95708.84;;;13.96;99.96
10014;BME280;45684;48.358;10.746;2023-03-23T19:27:56;95704.56;;;13.95;99.84
10014;BME280;45684;48.358;10.746;2023-03-23T19:30:44;95700.69;;;13.96;98.46
10014;BME280;45684;48.358;10.746;2023-03-23T19:33:14;95701.69;;;14.03;98.45
10014;BME280;45684;48.358;10.746;2023-03-23T19:35:47;95695.88;;;14.05;97.57
10014;BME280;45684;48.358;10.746;2023-03-23T19:38:17;95704.47;;;14.07;96.79
10014;BME280;45684;48.358;10.746;2023-03-23T19:40:49;95692.13;;;14.10;95.62
10014;BME280;45684;48.358;10.746;2023-03-23T19:43:21;95685.97;;;14.13;94.36
10014;BME280;45684;48.358;10.746;2023-03-23T19:45:52;95691.94;;;14.18;94.76
10014;BME280;45684;48.358;10.746;2023-03-23T19:48:20;95682.44;;;14.12;94.41
10014;BME280;45684;48.358;10.746;2023-03-23T19:50:50;95688.88;;;14.20;93.59
10014;BME280;45684;48.358;10.746;2023-03-23T19:53:18;95683.44;;;14.20;93.51
10014;BME280;45684;48.358;10.746;2023-03-23T19:55:46;95684.91;;;14.17;94.01
10014;BME280;45684;48.358;10.746;2023-03-23T19:58:14;95685.16;;;14.12;94.02
10014;BME280;45684;48.358;10.746;2023-03-23T20:00:43;95683.16;;;14.09;93.96
10014;BME280;45684;48.358;10.746;2023-03-23T20:03:11;95682.44;;;14.12;93.94
10014;BME280;45684;48.358;10.746;2023-03-23T20:05:39;95680.53;;;14.13;94.44
10014;BME280;45684;48.358;10.746;2023-03-23T20:08:09;95681.41;;;14.17;93.86
10014;BME280;45684;48.358;10.746;2023-03-23T20:10:38;95673.50;;;14.12;94.09
10014;BME280;45684;48.358;10.746;2023-03-23T20:13:07;95682.03;;;14.10;94.31
10014;BME280;45684;48.358;10.746;2023-03-23T20:15:36;95689.72;;;14.08;94.16
10014;BME280;45684;48.358;10.746;2023-03-23T20:18:04;95690.88;;;14.07;94.57
10014;BME280;45684;48.358;10.746;2023-03-23T20:20:33;95689.31;;;14.06;95.10
10014;BME280;45684;48.358;10.746;2023-03-23T20:23:02;95689.72;;;14.08;94.22
10014;BME280;45684;48.358;10.746;2023-03-23T20:25:34;95679.56;;;14.05;94.28
10014;BME280;45684;48.358;10.746;2023-03-23T20:28:03;95694.06;;;14.09;93.57
10014;BME280;45684;48.358;10.746;2023-03-23T20:30:31;95685.88;;;14.09;93.91
10014;BME280;45684;48.358;10.746;2023-03-23T20:32:59;95684.66;;;14.22;92.15
10014;BME280;45684;48.358;10.746;2023-03-23T20:35:27;95692.09;;;14.25;91.57
10014;BME280;45684;48.358;10.746;2023-03-23T20:37:56;95692.63;;;14.15;92.76
10014;BME280;45684;48.358;10.746;2023-03-23T20:40:24;95689.50;;;14.13;94.05
10014;BME280;45684;48.358;10.746;2023-03-23T20:42:54;95687.88;;;14.12;92.98
10014;BME280;45684;48.358;10.746;2023-03-23T20:45:24;95703.50;;;14.15;93.09
10014;BME280;45684;48.358;10.746;2023-03-23T20:47:51;95687.28;;;14.19;92.47
10014;BME280;45684;48.358;10.746;2023-03-23T20:50:19;95693.16;;;14.21;92.01
10014;BME280;45684;48.358;10.746;2023-03-23T20:52:47;95686.16;;;14.20;92.49
10014;BME280;45684;48.358;10.746;2023-03-23T20:55:15;95685.97;;;14.13;92.78
10014;BME280;45684;48.358;10.746;2023-03-23T20:57:44;95681.25;;;14.10;93.79
10014;BME280;45684;48.358;10.746;2023-03-23T21:00:13;95686.16;;;14.04;94.52
10014;BME280;45684;48.358;10.746;2023-03-23T21:02:43;95683.44;;;14.04;94.78
10014;BME280;45684;48.358;10.746;2023-03-23T21:05:15;95682.47;;;13.96;96.16
10014;BME280;45684;48.358;10.746;2023-03-23T21:07:43;95687.09;;;13.96;97.41
10014;BME280;45684;48.358;10.746;2023-03-23T21:10:12;95673.69;;;13.87;100.00
10014;BME280;45684;48.358;10.746;2023-03-23T21:12:39;95664.28;;;13.69;100.00
10014;BME280;45684;48.358;10.746;2023-03-23T21:15:07;95669.44;;;13.58;100.00
10014;BME280;45684;48.358;10.746;2023-03-23T21:17:37;95661.88;;;13.51;100.00
10014;BME280;45684;48.358;10.746;2023-03-23T21:20:06;95660.13;;;13.43;100.00
10014;BME280;45684;48.358;10.746;2023-03-23T21:22:36;95659.56;;;13.38;100.00
10014;BME280;45684;48.358;10.746;2023-03-23T21:25:05;95664.13;;;13.34;100.00
10014;BME280;45684;48.358;10.746;2023-03-23T21:27:34;95653.16;;;13.30;100.00
10014;BME280;45684;48.358;10.746;2023-03-23T21:30:03;95647.97;;;13.25;100.00
10014;BME280;45684;48.358;10.746;2023-03-23T21:32:31;95643.53;;;13.20;100.00
10014;BME280;45684;48.358;10.746;2023-03-23T21:35:00;95641.50;;;13.17;100.00
10014;BME280;45684;48.358;10.746;2023-03-23T21:37:30;95639.47;;;13.14;100.00
10014;BME280;45684;48.358;10.746;2023-03-23T21:39:58;95639.03;;;13.12;100.00
10014;BME280;45684;48.358;10.746;2023-03-23T21:42:25;95628.78;;;13.06;100.00
10014;BME280;45684;48.358;10.746;2023-03-23T21:44:56;95631.94;;;13.08;100.00
10014;BME280;45684;48.358;10.746;2023-03-23T21:47:27;95625.63;;;13.03;100.00
10014;BME280;45684;48.358;10.746;2023-03-23T21:49:56;95626.22;;;12.97;100.00
10014;BME280;45684;48.358;10.746;2023-03-23T21:52:26;95625.88;;;12.86;100.00
10014;BME280;45684;48.358;10.746;2023-03-23T21:54:54;95616.00;;;12.78;100.00
10014;BME280;45684;48.358;10.746;2023-03-23T21:57:24;95616.78;;;12.66;100.00
10014;BME280;45684;48.358;10.746;2023-03-23T21:59:53;95618.03;;;12.69;100.00
10014;BME280;45684;48.358;10.746;2023-03-23T22:02:21;95610.94;;;12.64;100.00
10014;BME280;45684;48.358;10.746;2023-03-23T22:04:49;95611.25;;;12.63;100.00
10014;BME280;45684;48.358;10.746;2023-03-23T22:07:17;95608.66;;;12.66;100.00
10014;BME280;45684;48.358;10.746;2023-03-23T22:09:50;95603.91;;;12.63;100.00
10014;BME280;45684;48.358;10.746;2023-03-23T22:12:18;95608.91;;;12.61;100.00
10014;BME280;45684;48.358;10.746;2023-03-23T22:14:46;95603.47;;;12.61;100.00
10014;BME280;45684;48.358;10.746;2023-03-23T22:17:14;95609.94;;;12.57;100.00
10014;BME280;45684;48.358;10.746;2023-03-23T22:19:42;95599.19;;;12.48;100.00
10014;BME280;45684;48.358;10.746;2023-03-23T22:22:10;95603.06;;;12.47;100.00
10014;BME280;45684;48.358;10.746;2023-03-23T22:24:38;95600.31;;;12.59;100.00
10014;BME280;45684;48.358;10.746;2023-03-23T22:27:07;95601.56;;;12.49;100.00
10014;BME280;45684;48.358;10.746;2023-03-23T22:29:35;95593.00;;;12.47;100.00
10014;BME280;45684;48.358;10.746;2023-03-23T22:32:03;95583.72;;;12.48;100.00
10014;BME280;45684;48.358;10.746;2023-03-23T22:34:31;95580.91;;;12.45;100.00
10014;BME280;45684;48.358;10.746;2023-03-23T22:36:59;95562.97;;;12.40;100.00
10014;BME280;45684;48.358;10.746;2023-03-23T22:39:27;95564.44;;;12.38;100.00